createdAt,value
2022-08-18T00:09:49.381Z,16.3
2022-08-18T00:15:00.007Z,16.2
2022-08-18T00:20:57.549Z,16.2
2022-08-18T00:26:37.032Z,16.1
2022-08-18T00:32:21.237Z,16.1
2022-08-18T00:37:57.295Z,16
2022-08-18T00:43:57.904Z,15.9
2022-08-18T00:50:03.160Z,15.9
2022-08-18T00:55:43.746Z,15.8
2022-08-18T01:01:31.397Z,15.8
2022-08-18T01:07:09.877Z,15.7
2022-08-18T01:13:24.180Z,15.6
2022-08-18T01:19:14.479Z,15.5
2022-08-18T01:24:50.361Z,15.4
2022-08-18T01:30:21.602Z,15.4
2022-08-18T01:36:19.735Z,15.3
2022-08-18T01:44:01.963Z,15.3
2022-08-18T01:49:58.797Z,15.2
2022-08-18T01:55:38.262Z,15.1
2022-08-18T02:01:07.174Z,15.1
2022-08-18T02:07:53.516Z,15
2022-08-18T02:13:42.788Z,14.9
2022-08-18T02:19:42.624Z,14.9
2022-08-18T02:25:04.469Z,14.8
2022-08-18T02:30:47.851Z,14.8
2022-08-18T02:36:26.400Z,14.7
2022-08-18T02:42:08.178Z,14.6
2022-08-18T02:47:24.262Z,14.6
2022-08-18T02:53:10.608Z,14.6
2022-08-18T02:58:59.059Z,14.4
2022-08-18T03:04:40.539Z,14.4
2022-08-18T03:10:49.870Z,14.3
2022-08-18T03:16:34.378Z,14.3
2022-08-18T03:22:44.025Z,14.2
2022-08-18T03:28:52.426Z,14.1
2022-08-18T03:34:28.525Z,14.1
2022-08-18T03:40:05.847Z,14
2022-08-18T03:46:46.774Z,13.9
2022-08-18T03:52:23.171Z,13.9
2022-08-18T03:58:02.076Z,13.9
2022-08-18T04:03:45.191Z,13.9
2022-08-18T04:09:37.836Z,13.9
2022-08-18T04:15:25.314Z,13.9
2022-08-18T04:21:37.852Z,13.9
2022-08-18T04:27:30.087Z,14
2022-08-18T04:33:11.875Z,14.1
2022-08-18T04:38:38.418Z,14.2
2022-08-18T04:44:26.803Z,14.3
2022-08-18T04:50:06.973Z,14.5
2022-08-18T04:57:05.647Z,14.8
2022-08-18T05:02:42.921Z,15.1
2022-08-18T05:08:19.740Z,15.5
2022-08-18T05:13:58.545Z,15.9
2022-08-18T05:20:22.473Z,16.6
2022-08-18T05:26:21.474Z,17.3
2022-08-18T05:32:30.764Z,18.2
2022-08-18T05:38:30.324Z,19.3
2022-08-18T05:44:09.730Z,20.4
2022-08-18T05:49:52.002Z,21.6
2022-08-18T05:55:36.362Z,23
2022-08-18T06:01:16.469Z,24.5
2022-08-18T06:06:55.136Z,26
2022-08-18T06:12:54.256Z,27.7
2022-08-18T06:18:21.853Z,29.3
2022-08-18T06:24:06.818Z,31.2
2022-08-18T06:29:44.095Z,35.8
2022-08-18T06:35:32.393Z,35.3
2022-08-18T06:41:37.685Z,35.5
2022-08-18T06:47:36.587Z,38.1
2022-08-18T06:53:43.922Z,38.9
2022-08-18T06:59:34.401Z,39.5
2022-08-18T07:05:15.270Z,39.9
2022-08-18T07:11:03.939Z,40.4
2022-08-18T07:17:14.669Z,40.9
2022-08-18T07:23:17.863Z,41.4
2022-08-18T07:29:11.645Z,41.8
2022-08-18T07:34:57.521Z,42.3
2022-08-18T07:41:02.270Z,42.7
2022-08-18T07:47:08.009Z,43.1
2022-08-18T07:55:26.394Z,43.8
2022-08-18T08:01:41.196Z,44.2
2022-08-18T08:08:03.516Z,44.7
2022-08-18T08:14:31.375Z,45.2
2022-08-18T08:20:53.130Z,45.6
2022-08-18T08:27:09.969Z,45.9
2022-08-18T08:33:04.675Z,46.3
2022-08-18T08:39:49.327Z,46.7
2022-08-18T08:45:53.068Z,46.9
2022-08-18T08:51:46.449Z,47.3
2022-08-18T08:57:29.803Z,47.6
2022-08-18T09:03:32.501Z,47.9
2022-08-18T09:09:25.711Z,48.2
2022-08-18T09:15:01.921Z,48.4
2022-08-18T09:20:48.981Z,48.6
2022-08-18T09:26:26.175Z,48.9
2022-08-18T13:06:09.066Z,55.3
2022-08-18T13:13:47.240Z,55.2
2022-08-18T13:20:37.405Z,55.1
2022-08-18T13:27:02.256Z,55.1
2022-08-18T13:34:40.831Z,54.4
2022-08-18T13:40:51.503Z,54.2
2022-08-18T13:47:29.253Z,54.1
2022-08-18T13:53:29.764Z,54
2022-08-18T14:00:05.029Z,53.9
2022-08-18T14:07:35.396Z,53.7
2022-08-18T14:14:00.506Z,53.5
2022-08-18T14:19:30.628Z,53.3
2022-08-18T14:25:45.009Z,52.9
2022-08-18T14:32:13.217Z,52.6
2022-08-18T14:39:30.385Z,52.3
2022-08-18T14:46:47.546Z,52
2022-08-18T14:53:11.460Z,51.7
2022-08-18T14:59:18.458Z,51.4
2022-08-18T15:06:04.572Z,50.9
2022-08-18T15:12:30.882Z,50.6
2022-08-18T15:19:04.679Z,50.2
2022-08-18T15:26:07.854Z,49.8
2022-08-18T15:33:21.977Z,49.4
2022-08-18T15:39:55.483Z,48.9
2022-08-18T15:46:36.031Z,48.4
2022-08-18T15:53:13.471Z,48
2022-08-18T15:59:56.368Z,47.6
2022-08-18T16:06:32.249Z,47.1
2022-08-18T16:12:43.990Z,46.8
2022-08-18T16:18:51.325Z,46.3
2022-08-18T16:24:34.597Z,46
2022-08-18T16:30:18.668Z,45.6
2022-08-18T16:36:01.809Z,45.3
2022-08-18T16:41:44.913Z,44.9
2022-08-18T16:47:24.153Z,44.6
2022-08-18T16:53:09.437Z,44.3
2022-08-18T16:59:26.605Z,43.5
2022-08-18T17:05:31.486Z,41.9
2022-08-18T17:11:26.900Z,40.8
2022-08-18T17:17:11.887Z,39.6
2022-08-18T17:22:53.416Z,38.5
2022-08-18T17:29:28.491Z,37.3
2022-08-18T17:35:07.049Z,36.4
2022-08-18T17:40:50.043Z,35.6
2022-08-18T17:46:49.501Z,34.8
2022-08-18T17:52:52.697Z,33.3
2022-08-18T17:58:37.167Z,32.1
2022-08-18T18:05:05.526Z,31
2022-08-18T18:16:57.213Z,29.5
2022-08-18T18:23:12.072Z,28.9
2022-08-18T18:29:03.412Z,28.3
2022-08-18T18:40:11.997Z,27.4
2022-08-18T18:45:57.086Z,27
2022-08-18T18:52:28.037Z,26.6
2022-08-18T18:58:06.966Z,26.3
2022-08-18T19:04:17.706Z,25.9
2022-08-18T19:10:03.810Z,25.7
2022-08-18T19:16:21.482Z,25.4
2022-08-18T19:24:22.712Z,25.1
2022-08-18T19:30:39.864Z,24.8
2022-08-18T19:37:22.707Z,24.6
2022-08-18T19:43:15.913Z,24.3
2022-08-18T19:55:22.466Z,23.9
2022-08-18T20:01:20.760Z,23.7
2022-08-18T20:07:14.041Z,23.5
2022-08-18T20:13:09.451Z,23.4
2022-08-18T20:19:12.359Z,23.2
2022-08-18T20:24:42.399Z,23
2022-08-18T20:30:26.567Z,22.8
2022-08-18T20:36:03.747Z,22.7
2022-08-18T20:41:46.527Z,22.5
2022-08-18T20:47:49.227Z,22.4
2022-08-18T20:53:49.797Z,22.3
2022-08-18T21:00:03.417Z,22.1
2022-08-18T21:05:54.053Z,21.9
2022-08-18T21:11:56.454Z,21.8
2022-08-18T21:17:56.410Z,21.6
2022-08-18T21:23:28.982Z,21.5
2022-08-18T21:29:04.860Z,21.3
2022-08-18T21:41:07.846Z,20.9
2022-08-18T21:46:33.830Z,20.8
2022-08-18T21:51:59.041Z,20.6
2022-08-18T21:57:37.293Z,20.4
2022-08-18T22:03:21.683Z,20.3
2022-08-18T22:09:28.283Z,20.1
2022-08-18T22:16:04.685Z,20
2022-08-18T22:21:29.329Z,19.9
2022-08-18T22:26:53.983Z,19.8
2022-08-18T22:32:36.893Z,19.6
2022-08-18T22:38:14.268Z,19.6
2022-08-18T22:49:26.643Z,19.3
2022-08-18T22:55:07.358Z,19.2
2022-08-18T23:01:43.338Z,19.1
2022-08-18T23:06:55.716Z,18.9
2022-08-18T23:12:42.413Z,18.8
2022-08-18T23:24:08.526Z,18.6
2022-08-18T23:29:52.015Z,18.4
2022-08-18T23:35:40.097Z,18.3
2022-08-18T23:41:25.809Z,18.1
2022-08-18T23:47:03.893Z,18
2022-08-18T23:52:47.304Z,17.9
2022-08-18T23:58:30.025Z,17.7
